Butte City, California
Current Conditions -  °F | °C
As of 11:53 AM on Monday 26 Jan 2015 (Local Time) from KOVE Reporting Station
Clear Clear  
Wind Chill: 51°   Ceiling: Unl
Heat Index: 51°   Visibility: 7mi
Dew Point: 46°   Wind: 7mph
Humidity: 83%   Direction: 270°W
Pressure: 30.05"   Gusts: NA
Location:  39.46°N, 121.99°W
Report Text: KOVE 261953Z AUTO 27006KT 7SM CLR 11/08 A3005 RMK AO2 SLP178 T01060078
Loading
Personal Weather Stations






























Interactive Weather Map New forecast layout! Learn more

10-Day Weather Forecast

Advertisements
Track Severe Weather on mobile